Time;durP1;ratioP1;P1;durP2;ratioP2;P2;SDS_P1;SDS_P2;PMS_P1;PMS_P2;Temp;Humidity;BMP_temperature;BMP_pressure;BME280_temperature;BME280_humidity;BME280_pressure;Samples;Min_cycle;Max_cycle;Signal;HPM_P1;HPM_P2
2022/05/02 00:01:58;;;;;;;9.57;7.20;;;;;;;;;;5049260;28;20501;-91
2022/05/02 00:04:24;;;;;;;10.13;7.32;;;;;;;;;;5048310;28;20086;-91
2022/05/02 00:06:50;;;;;;;9.02;7.20;;;;;;;;;;5048139;28;20120;-92
2022/05/02 00:09:16;;;;;;;16.95;7.47;;;;;;;;;;5049077;28;20126;-91
2022/05/02 00:11:42;;;;;;;13.00;7.60;;;;;;;;;;5050710;28;20040;-93
2022/05/02 00:14:08;;;;;;;11.68;7.03;;;;;;;;;;5053261;28;20057;-93
2022/05/02 00:16:36;;;;;;;10.55;6.85;;;;;;;;;;5053366;28;20067;-92
2022/05/02 00:19:02;;;;;;;9.30;7.03;;;;;;;;;;5053322;28;20021;-89
2022/05/02 00:21:29;;;;;;;10.05;7.65;;;;;;;;;;5052908;28;20275;-93
2022/05/02 00:23:54;;;;;;;12.90;7.50;;;;;;;;;;5053097;28;20025;-90
2022/05/02 00:26:20;;;;;;;10.85;7.07;;;;;;;;;;5053294;28;20025;-92
2022/05/02 00:28:47;;;;;;;9.57;6.32;;;;;;;;;;5054286;28;20462;-89
2022/05/02 00:31:13;;;;;;;11.48;6.68;;;;;;;;;;5054141;28;20028;-93
2022/05/02 00:33:39;;;;;;;8.93;6.75;;;;;;;;;;5053023;28;20055;-91
2022/05/02 00:36:05;;;;;;;12.60;6.55;;;;;;;;;;5052636;28;20036;-92
2022/05/02 00:38:31;;;;;;;8.27;6.38;;;;;;;;;;5051619;28;20051;-94
2022/05/02 00:40:58;;;;;;;11.38;7.18;;;;;;;;;;5052603;28;20025;-93
2022/05/02 00:43:24;;;;;;;12.13;7.30;;;;;;;;;;5052650;28;20029;-93
2022/05/02 00:45:50;;;;;;;10.50;7.05;;;;;;;;;;5052989;28;20032;-93
2022/05/02 00:48:17;;;;;;;11.15;6.57;;;;;;;;;;5058561;28;20013;-85
2022/05/02 00:50:44;;;;;;;10.88;7.00;;;;;;;;;;5077828;28;20021;-87
2022/05/02 00:53:12;;;;;;;14.93;7.30;;;;;;;;;;5077253;28;20021;-91
2022/05/02 00:55:38;;;;;;;13.30;7.95;;;;;;;;;;5069016;28;20028;-91
2022/05/02 00:58:05;;;;;;;10.93;7.53;;;;;;;;;;5056789;28;20021;-91
2022/05/02 01:00:32;;;;;;;13.95;7.63;;;;;;;;;;5052854;28;20025;-92
2022/05/02 01:02:58;;;;;;;11.73;6.75;;;;;;;;;;5052411;28;20087;-92
2022/05/02 01:05:24;;;;;;;10.68;7.90;;;;;;;;;;5050833;28;20033;-92
2022/05/02 01:07:50;;;;;;;11.43;7.97;;;;;;;;;;5052383;28;20025;-92
2022/05/02 01:10:17;;;;;;;10.25;7.55;;;;;;;;;;5052838;28;20060;-93
2022/05/02 01:12:44;;;;;;;11.38;7.25;;;;;;;;;;5053102;28;20028;-91
2022/05/02 01:15:10;;;;;;;12.88;7.38;;;;;;;;;;5052356;28;20025;-94
2022/05/02 01:17:37;;;;;;;12.35;7.60;;;;;;;;;;5051225;28;20021;-93
2022/05/02 01:20:13;;;;;;;9.68;7.15;;;;;;;;;;5052253;28;20049;-94
2022/05/02 01:22:39;;;;;;;10.43;7.10;;;;;;;;;;5051754;28;20032;-93
2022/05/02 01:25:05;;;;;;;10.13;7.32;;;;;;;;;;5051709;28;20017;-93
2022/05/02 01:27:31;;;;;;;10.77;7.57;;;;;;;;;;5052189;28;20495;-93
2022/05/02 01:29:57;;;;;;;11.00;7.55;;;;;;;;;;5050847;28;20374;-92
2022/05/02 01:32:23;;;;;;;10.77;7.32;;;;;;;;;;5051848;28;20474;-92
2022/05/02 01:34:50;;;;;;;12.70;7.97;;;;;;;;;;5051761;28;20473;-84
2022/05/02 01:37:16;;;;;;;10.55;7.35;;;;;;;;;;5052541;28;20029;-92
2022/05/02 01:39:42;;;;;;;9.77;7.32;;;;;;;;;;5050680;28;20416;-93
2022/05/02 01:42:10;;;;;;;12.45;7.85;;;;;;;;;;5051521;28;20049;-94
2022/05/02 01:44:36;;;;;;;11.65;7.65;;;;;;;;;;5050339;28;20028;-92
2022/05/02 01:47:02;;;;;;;9.85;7.38;;;;;;;;;;5051402;28;20025;-92
2022/05/02 01:49:28;;;;;;;15.30;7.97;;;;;;;;;;5051342;28;20029;-92
2022/05/02 01:51:54;;;;;;;14.65;8.15;;;;;;;;;;5051344;28;20029;-89
2022/05/02 01:54:21;;;;;;;13.63;6.95;;;;;;;;;;5051993;28;20032;-85
2022/05/02 01:56:47;;;;;;;11.75;7.70;;;;;;;;;;5054004;28;20021;-92
2022/05/02 01:59:13;;;;;;;13.55;7.78;;;;;;;;;;5051785;28;20466;-90
2022/05/02 02:01:39;;;;;;;14.02;7.43;;;;;;;;;;5049711;28;20029;-91
2022/05/02 02:05:48;;;;;;;11.68;8.27;;;;;;;;;;5051244;28;20021;-93
2022/05/02 02:06:52;;;;;;;10.27;7.40;;;;;;;;;;5054440;28;20106;-84
2022/05/02 02:09:18;;;;;;;12.48;7.55;;;;;;;;;;5051506;28;20041;-93
2022/05/02 02:11:44;;;;;;;10.80;7.72;;;;;;;;;;5051380;28;20037;-94
2022/05/02 02:14:11;;;;;;;14.50;8.20;;;;;;;;;;5049917;28;20123;-92
2022/05/02 02:16:37;;;;;;;15.43;9.05;;;;;;;;;;5051868;28;20025;-92
2022/05/02 02:19:04;;;;;;;13.52;7.78;;;;;;;;;;5052809;28;20104;-92
2022/05/02 02:21:31;;;;;;;12.00;8.38;;;;;;;;;;5049694;28;20025;-91
2022/05/02 02:23:57;;;;;;;13.05;8.55;;;;;;;;;;5049271;28;20025;-91
2022/05/02 02:26:23;;;;;;;14.07;8.20;;;;;;;;;;5049134;28;20083;-88
2022/05/02 02:28:49;;;;;;;13.20;8.13;;;;;;;;;;5051435;28;20025;-93
2022/05/02 02:31:15;;;;;;;11.10;7.97;;;;;;;;;;5054851;28;20047;-93
2022/05/02 02:33:41;;;;;;;15.15;8.60;;;;;;;;;;5058869;28;20064;-93
2022/05/02 02:36:07;;;;;;;13.65;8.93;;;;;;;;;;5053059;28;20123;-94
2022/05/02 02:38:33;;;;;;;11.82;8.30;;;;;;;;;;5050532;28;20060;-92
2022/05/02 02:40:59;;;;;;;14.45;8.48;;;;;;;;;;5050295;28;20052;-93
2022/05/02 02:43:27;;;;;;;14.15;8.68;;;;;;;;;;5050313;28;20083;-93
2022/05/02 02:45:53;;;;;;;11.23;7.67;;;;;;;;;;5050048;28;20056;-93
2022/05/02 02:48:19;;;;;;;13.38;8.20;;;;;;;;;;5050042;28;20021;-92
2022/05/02 02:50:45;;;;;;;11.05;7.30;;;;;;;;;;5053336;28;20043;-92
2022/05/02 02:53:11;;;;;;;11.10;7.45;;;;;;;;;;5049361;28;20028;-94
2022/05/02 02:55:37;;;;;;;11.20;7.25;;;;;;;;;;5052271;28;20444;-91
2022/05/02 02:58:04;;;;;;;9.60;7.30;;;;;;;;;;5054295;28;20025;-92
2022/05/02 03:00:30;;;;;;;10.35;6.68;;;;;;;;;;5051996;28;20021;-93
2022/05/02 03:02:56;;;;;;;10.85;7.40;;;;;;;;;;5049916;28;20056;-91
2022/05/02 03:08:09;;;;;;;11.30;7.55;;;;;;;;;;5049954;28;20036;-93
2022/05/02 03:10:35;;;;;;;11.23;7.18;;;;;;;;;;5049263;28;20033;-93
2022/05/02 03:13:01;;;;;;;13.43;6.95;;;;;;;;;;5055794;28;20032;-92
2022/05/02 03:15:27;;;;;;;14.57;7.38;;;;;;;;;;5050894;28;20029;-91
2022/05/02 03:17:53;;;;;;;11.55;8.00;;;;;;;;;;5049923;28;20029;-94
2022/05/02 03:20:19;;;;;;;11.60;7.47;;;;;;;;;;5048813;28;20021;-94
2022/05/02 03:22:45;;;;;;;11.45;7.47;;;;;;;;;;5049648;28;20161;-90
2022/05/02 03:25:11;;;;;;;12.43;7.80;;;;;;;;;;5047816;28;20021;-92
2022/05/02 03:27:37;;;;;;;9.90;7.97;;;;;;;;;;5052537;28;20016;-84
2022/05/02 03:30:03;;;;;;;12.10;7.85;;;;;;;;;;5069453;28;20041;-89
2022/05/02 03:32:30;;;;;;;11.52;7.85;;;;;;;;;;5067800;28;20032;-91
2022/05/02 03:34:56;;;;;;;12.30;7.55;;;;;;;;;;5051503;28;20063;-85
2022/05/02 03:37:22;;;;;;;11.65;8.13;;;;;;;;;;5049993;28;20021;-91
2022/05/02 03:39:49;;;;;;;11.57;8.15;;;;;;;;;;5050461;28;20454;-92
2022/05/02 03:42:15;;;;;;;15.02;8.43;;;;;;;;;;5049061;28;20029;-92
2022/05/02 03:44:41;;;;;;;13.98;8.30;;;;;;;;;;5049708;28;20034;-94
2022/05/02 03:47:07;;;;;;;12.43;7.85;;;;;;;;;;5050386;28;20044;-90
2022/05/02 03:49:36;;;;;;;10.88;8.18;;;;;;;;;;5053084;28;20524;-93
2022/05/02 03:52:02;;;;;;;12.65;8.02;;;;;;;;;;5058118;28;20029;-93
2022/05/02 03:54:39;;;;;;;12.02;7.68;;;;;;;;;;5062805;28;20036;-84
2022/05/02 03:57:05;;;;;;;10.73;7.88;;;;;;;;;;5056778;28;20044;-91
2022/05/02 03:59:31;;;;;;;12.93;8.13;;;;;;;;;;5065145;28;20025;-93
2022/05/02 04:01:57;;;;;;;10.27;8.15;;;;;;;;;;5070174;28;20048;-84
2022/05/02 04:04:24;;;;;;;13.18;8.88;;;;;;;;;;5075816;28;20029;-93
2022/05/02 04:06:50;;;;;;;14.40;9.52;;;;;;;;;;5074549;28;20040;-92
2022/05/02 04:09:22;;;;;;;13.30;9.02;;;;;;;;;;5029925;28;1212167;-89
2022/05/02 04:11:48;;;;;;;11.38;8.38;;;;;;;;;;5060724;28;20223;-93
2022/05/02 04:14:14;;;;;;;15.60;8.77;;;11.50;99.90;;;;;;5056010;28;20021;-85
2022/05/02 04:16:40;;;;;;;13.30;8.95;;;11.60;99.90;;;;;;5051974;28;20028;-87
2022/05/02 04:19:05;;;;;;;12.25;8.68;;;11.60;99.90;;;;;;5051679;28;20056;-87
2022/05/02 04:21:31;;;;;;;15.38;9.35;;;11.60;99.90;;;;;;5052067;28;20036;-85
2022/05/02 04:23:57;;;;;;;12.23;8.15;;;11.60;99.90;;;;;;5067876;28;20021;-86
2022/05/02 04:26:23;;;;;;;14.00;9.75;;;11.60;99.90;;;;;;5050655;28;20497;-86
2022/05/02 04:28:49;;;;;;;11.57;9.00;;;11.50;99.90;;;;;;5051596;28;20067;-88
2022/05/02 04:31:15;;;;;;;12.35;9.18;;;11.50;99.90;;;;;;5067039;28;20029;-87
2022/05/02 04:33:40;;;;;;;12.65;8.75;;;11.50;99.90;;;;;;5051623;28;20023;-88
2022/05/02 04:36:07;;;;;;;15.77;9.05;;;11.50;99.90;;;;;;5051863;28;20036;-88
2022/05/02 04:38:33;;;;;;;12.02;9.23;;;11.40;99.90;;;;;;5051553;28;20025;-87
2022/05/02 04:41:01;;;;;;;14.75;10.02;;;11.40;99.90;;;;;;5052344;28;20083;-89
2022/05/02 04:43:27;;;;;;;13.45;9.20;;;11.40;99.90;;;;;;5049496;28;20021;-86
2022/05/02 04:45:53;;;;;;;14.95;9.00;;;11.30;99.90;;;;;;5043499;28;20096;-87
2022/05/02 04:48:19;;;;;;;23.00;9.93;;;11.30;99.90;;;;;;5049834;28;20456;-86
2022/05/02 04:50:45;;;;;;;16.38;9.60;;;11.30;99.90;;;;;;5050987;28;20025;-86
2022/05/02 04:53:10;;;;;;;13.98;9.20;;;11.30;99.90;;;;;;5058701;28;20024;-87
2022/05/02 04:55:36;;;;;;;12.63;8.65;;;11.30;99.90;;;;;;5058803;28;20036;-87
2022/05/02 04:58:02;;;;;;;12.60;9.10;;;11.40;99.90;;;;;;5052459;28;20031;-87
2022/05/02 05:00:27;;;;;;;15.15;10.13;;;11.40;99.90;;;;;;5065583;28;20024;-87
2022/05/02 05:02:53;;;;;;;13.38;8.98;;;11.30;99.90;;;;;;5058371;28;20029;-87
2022/05/02 05:05:19;;;;;;;14.57;9.55;;;11.40;99.90;;;;;;5065285;28;20649;-87
2022/05/02 05:07:44;;;;;;;13.77;10.50;;;11.40;99.90;;;;;;5053518;28;20021;-87
2022/05/02 05:10:11;;;;;;;17.33;10.10;;;11.30;99.90;;;;;;5050969;28;20033;-87
2022/05/02 05:12:49;;;;;;;16.63;9.68;;;11.20;99.90;;;;;;5051040;28;20118;-86
2022/05/02 05:18:44;;;;;;;18.33;9.77;;;11.20;99.90;;;;;;5050963;28;20028;-87
2022/05/02 05:21:36;;;;;;;13.20;9.32;;;11.20;99.90;;;;;;5051117;28;20036;-86
2022/05/02 05:24:07;;;;;;;14.40;9.50;;;11.20;99.90;;;;;;5051233;28;20100;-86
2022/05/02 05:26:45;;;;;;;18.80;9.77;;;11.30;99.90;;;;;;5051007;28;20029;-87
2022/05/02 05:29:21;;;;;;;12.03;9.23;;;11.30;99.90;;;;;;5050981;28;20496;-87
2022/05/02 05:32:27;;;;;;;15.57;9.77;;;11.30;99.90;;;;;;5050678;28;20266;-87
2022/05/02 05:34:56;;;;;;;15.82;9.60;;;11.20;99.90;;;;;;5050544;28;20021;-86
2022/05/02 05:37:45;;;;;;;14.13;10.07;;;11.20;99.90;;;;;;5050601;28;20397;-87
2022/05/02 05:40:29;;;;;;;15.07;9.60;;;11.30;99.90;;;;;;5050657;28;20033;-87
2022/05/02 05:43:10;;;;;;;14.82;10.40;;;11.30;99.90;;;;;;5050456;28;20021;-85
2022/05/02 05:45:46;;;;;;;16.70;9.50;;;11.40;99.90;;;;;;5048885;28;20451;-86
2022/05/02 05:48:21;;;;;;;15.38;10.35;;;11.50;99.90;;;;;;5046528;28;20036;-86
2022/05/02 05:51:01;;;;;;;15.10;10.32;;;11.40;99.90;;;;;;5052598;28;20113;-83
2022/05/02 05:54:28;;;;;;;18.90;9.60;;;11.70;99.90;;;;;;5067406;28;20091;-86
2022/05/02 05:57:41;;;;;;;15.25;9.48;;;11.70;99.90;;;;;;4991393;28;20022;-85
2022/05/02 06:00:14;;;;;;;15.60;9.80;;;11.50;99.90;;;;;;4920372;28;20127;-87
2022/05/02 06:03:14;;;;;;;11.68;9.20;;;11.30;99.90;;;;;;5039782;28;20037;-86
2022/05/02 06:05:46;;;;;;;13.65;9.43;;;11.50;99.90;;;;;;5049690;28;20017;-87
2022/05/02 06:08:18;;;;;;;16.23;10.20;;;11.50;99.90;;;;;;5049608;28;20029;-86
2022/05/02 06:10:44;;;;;;;16.48;9.52;;;11.60;99.90;;;;;;5047083;28;20098;-86
2022/05/02 06:13:09;;;;;;;16.90;10.30;;;11.50;99.90;;;;;;5049726;28;20485;-85
2022/05/02 06:18:28;;;;;;;16.30;10.52;;;11.60;99.90;;;;;;5049392;28;20032;-85
2022/05/02 06:20:59;;;;;;;12.60;9.27;;;11.60;99.90;;;;;;5051054;28;20492;-86
2022/05/02 06:23:27;;;;;;;14.98;9.23;;;11.80;99.90;;;;;;5049520;28;20440;-88
2022/05/02 06:25:55;;;;;;;14.27;10.02;;;11.90;99.90;;;;;;5049281;28;20250;-87
2022/05/02 06:28:26;;;;;;;16.33;9.77;;;12.00;99.90;;;;;;5053324;28;20162;-86
2022/05/02 06:30:55;;;;;;;13.85;8.95;;;12.00;99.90;;;;;;5063236;28;20086;-86
2022/05/02 06:33:23;;;;;;;14.55;9.85;;;12.10;99.90;;;;;;5049452;28;20484;-86
2022/05/02 06:36:07;;;;;;;14.27;10.40;;;11.90;99.90;;;;;;5049654;28;20024;-86
2022/05/02 06:38:56;;;;;;;13.25;10.50;;;11.90;99.90;;;;;;5050315;28;20104;-86
2022/05/02 06:41:38;;;;;;;15.32;9.95;;;12.00;99.90;;;;;;5047550;28;20025;-85
2022/05/02 06:44:25;;;;;;;15.90;9.95;;;11.90;99.90;;;;;;5050130;28;20100;-86
2022/05/02 06:47:24;;;;;;;16.10;9.73;;;12.10;99.90;;;;;;5048896;28;20099;-86
2022/05/02 06:49:53;;;;;;;17.90;9.70;;;12.00;99.90;;;;;;5049032;28;20037;-86
2022/05/02 06:52:24;;;;;;;17.65;9.95;;;12.20;99.90;;;;;;5047554;28;20017;-86
2022/05/02 06:55:01;;;;;;;15.88;9.70;;;12.30;99.90;;;;;;5048940;28;20124;-86
2022/05/02 06:57:33;;;;;;;16.10;9.97;;;12.30;99.90;;;;;;5049134;28;20021;-86
2022/05/02 07:00:15;;;;;;;15.02;9.52;;;12.30;99.90;;;;;;5048659;28;20021;-86
2022/05/02 07:03:29;;;;;;;14.15;9.70;;;12.30;99.90;;;;;;5047886;28;20027;-85
2022/05/02 07:06:08;;;;;;;14.77;9.43;;;12.40;99.90;;;;;;5046743;28;20359;-86
2022/05/02 07:08:55;;;;;;;14.73;9.32;;;12.40;99.90;;;;;;5048189;28;20013;-87
2022/05/02 07:11:27;;;;;;;16.45;10.30;;;12.50;99.90;;;;;;5047287;28;20055;-87
2022/05/02 07:14:35;;;;;;;15.73;9.90;;;12.50;99.90;;;;;;5047291;28;20036;-84
2022/05/02 07:17:04;;;;;;;;;;;12.50;99.90;;;;;;5046677;28;20020;-86
2022/05/02 07:19:48;;;;;;;12.20;9.32;;;12.60;99.90;;;;;;5049555;28;19905;-86
2022/05/02 07:22:22;;;;;;;15.65;9.68;;;12.80;99.90;;;;;;5046820;28;20021;-89
2022/05/02 07:25:11;;;;;;;12.38;8.77;;;12.90;99.90;;;;;;5044793;28;20028;-87
2022/05/02 07:28:04;;;;;;;15.07;9.48;;;12.80;99.90;;;;;;5047819;28;20025;-89
2022/05/02 07:30:34;;;;;;;18.33;8.95;;;12.90;99.90;;;;;;5047996;28;20024;-89
2022/05/02 07:33:02;;;;;;;14.57;9.50;;;12.90;99.90;;;;;;5053969;28;20104;-87
2022/05/02 07:35:29;;;;;;;13.82;9.32;;;13.00;99.90;;;;;;5047722;28;20028;-87
2022/05/02 07:37:57;;;;;;;16.33;9.48;;;12.90;99.90;;;;;;5046705;28;20037;-86
2022/05/02 07:40:25;;;;;;;13.30;9.82;;;13.20;99.90;;;;;;5045211;28;20087;-91
2022/05/02 07:42:53;;;;;;;13.95;9.57;;;13.20;99.90;;;;;;5046290;28;20497;-86
2022/05/02 07:45:24;;;;;;;;;;;13.30;99.90;;;;;;5047759;28;20530;-86
2022/05/02 07:47:52;;;;;;;18.48;9.23;;;13.40;99.90;;;;;;5047305;28;19909;-87
2022/05/02 07:50:21;;;;;;;;;;;13.60;99.90;;;;;;5046619;28;20036;-87
2022/05/02 07:52:47;;;;;;;;;;;13.80;99.90;;;;;;5047441;28;19995;-87
2022/05/02 07:55:14;;;;;;;12.95;8.65;;;14.00;99.90;;;;;;5046948;28;20364;-87
2022/05/02 07:57:41;;;;;;;15.82;8.82;;;13.90;99.90;;;;;;5047102;28;20017;-89
2022/05/02 08:00:10;;;;;;;15.38;9.43;;;14.00;99.90;;;;;;5047649;28;20036;-89
2022/05/02 08:02:37;;;;;;;16.88;9.05;;;14.20;99.90;;;;;;5044605;28;20036;-87
2022/05/02 08:05:06;;;;;;;16.73;8.40;;;14.30;99.90;;;;;;5047818;28;20048;-87
2022/05/02 08:07:44;;;;;;;14.23;8.82;;;14.50;99.90;;;;;;5049020;28;20025;-86
2022/05/02 08:10:22;;;;;;;;;;;14.60;99.90;;;;;;5048283;28;20051;-85
2022/05/02 08:12:57;;;;;;;16.85;9.00;;;14.70;99.90;;;;;;5063397;28;19995;-87
2022/05/02 08:15:30;;;;;;;13.38;9.02;;;14.80;99.90;;;;;;5047673;28;20032;-85
2022/05/02 08:18:26;;;;;;;12.07;9.05;;;15.00;99.90;;;;;;5045597;28;20564;-86
2022/05/02 08:21:05;;;;;;;14.50;8.93;;;15.00;99.90;;;;;;5042048;28;20400;-88
2022/05/02 08:27:21;;;;;;;13.48;8.18;;;15.40;99.90;;;;;;5002889;28;20076;-90
2022/05/02 08:30:05;;;;;;;12.68;8.98;;;15.20;99.90;;;;;;5003235;28;20038;-87
2022/05/02 08:32:52;;;;;;;13.07;8.98;;;15.20;99.90;;;;;;5040464;28;20040;-87
2022/05/02 08:35:45;;;;;;;12.30;8.18;;;15.50;99.90;;;;;;5051127;28;20444;-87
2022/05/02 08:38:36;;;;;;;12.57;9.05;;;15.10;99.90;;;;;;5055256;28;20021;-85
2022/05/02 08:41:08;;;;;;;16.65;9.60;;;15.40;99.90;;;;;;5060029;28;20029;-87
2022/05/02 08:44:04;;;;;;;18.27;8.80;;;15.70;99.90;;;;;;5069167;28;20024;-87
2022/05/02 08:46:58;;;;;;;17.00;8.95;;;16.00;99.90;;;;;;5055023;28;20059;-88
2022/05/02 08:49:51;;;;;;;16.27;8.88;;;16.30;99.90;;;;;;5049796;28;20021;-86
2022/05/02 08:52:36;;;;;;;11.82;8.98;;;16.30;99.90;;;;;;5047574;28;20028;-85
2022/05/02 08:55:30;;;;;;;16.73;9.20;;;16.50;99.90;;;;;;5050998;28;20031;-85
2022/05/02 08:58:21;;;;;;;19.55;9.00;;;16.50;99.00;;;;;;5049026;28;20531;-86
2022/05/02 09:01:35;;;;;;;16.63;9.70;;;16.00;94.30;;;;;;5049091;28;20029;-85
2022/05/02 09:04:37;;;;;;;18.05;8.98;;;15.70;99.40;;;;;;5048952;28;20117;-87
2022/05/02 09:07:21;;;;;;;17.35;9.27;;;16.00;99.50;;;;;;5043699;28;20021;-84
2022/05/02 09:09:51;;;;;;;19.67;9.80;;;16.00;94.60;;;;;;5050202;28;20091;-84
2022/05/02 09:12:44;;;;;;;16.98;9.55;;;16.10;98.30;;;;;;5050621;28;20021;-86
2022/05/02 09:15:13;;;;;;;17.75;9.70;;;16.10;96.80;;;;;;5061805;28;20469;-86
2022/05/02 09:17:51;;;;;;;14.18;9.02;;;15.90;94.80;;;;;;5070963;28;20035;-88
2022/05/02 09:20:54;;;;;;;14.45;9.52;;;16.20;99.90;;;;;;5070869;28;20024;-85
2022/05/02 09:23:34;;;;;;;17.45;9.55;;;16.50;97.60;;;;;;5070867;28;20031;-85
2022/05/02 09:26:06;;;;;;;18.52;9.60;;;16.30;87.60;;;;;;5070937;28;20024;-85
2022/05/02 09:28:38;;;;;;;14.52;8.70;;;16.40;90.60;;;;;;5071620;28;20020;-85
2022/05/02 09:31:49;;;;;;;17.13;9.13;;;16.60;96.70;;;;;;5071562;28;20033;-85
2022/05/02 09:34:25;;;;;;;15.35;9.43;;;16.60;90.30;;;;;;5064970;28;20098;-85
2022/05/02 09:37:14;;;;;;;15.65;9.65;;;16.80;97.10;;;;;;5053681;28;20079;-86
2022/05/02 09:39:42;;;;;;;15.60;9.68;;;17.00;84.40;;;;;;5050261;28;20082;-84
2022/05/02 09:42:46;;;;;;;15.68;9.15;;;16.90;94.00;;;;;;5050618;28;20117;-84
2022/05/02 09:52:05;;;;;;;16.65;9.48;;;17.30;95.00;;;;;;5046852;28;20075;-85
2022/05/02 09:58:09;;;;;;;14.18;8.68;;;17.40;93.20;;;;;;5049654;28;20028;-85
2022/05/02 10:01:11;;;;;;;13.38;8.90;;;17.70;93.10;;;;;;5013317;28;20044;-85
2022/05/02 10:03:57;;;;;;;14.95;9.20;;;18.20;91.20;;;;;;5048489;28;20018;-84
2022/05/02 10:06:47;;;;;;;17.73;8.30;;;18.10;79.50;;;;;;5018063;28;20029;-85
2022/05/02 10:09:36;;;;;;;13.05;8.98;;;17.40;73.90;;;;;;5047111;28;20052;-90
2022/05/02 10:12:29;;;;;;;18.13;9.75;;;17.50;87.50;;;;;;5048438;28;20020;-86
2022/05/02 10:15:18;;;;;;;14.20;10.10;;;17.90;91.60;;;;;;5050845;28;20100;-84
2022/05/02 10:17:48;;;;;;;14.73;9.50;;;18.20;82.60;;;;;;5048913;28;20025;-85
2022/05/02 10:20:19;;;;;;;12.55;9.05;;;18.00;88.50;;;;;;5047462;28;20071;-88
2022/05/02 10:22:59;;;;;;;15.50;9.50;;;18.10;89.10;;;;;;5048495;28;20078;-85
2022/05/02 10:25:42;;;;;;;16.35;8.82;;;18.40;87.70;;;;;;5061617;28;20029;-84
2022/05/02 10:28:35;;;;;;;16.08;9.23;;;18.50;84.70;;;;;;5047062;28;20025;-86
2022/05/02 10:31:12;;;;;;;13.13;9.90;;;18.50;88.20;;;;;;5045841;28;20025;-85
2022/05/02 10:33:54;;;;;;;16.02;9.48;;;18.50;80.70;;;;;;5048267;28;20021;-86
2022/05/02 10:36:23;;;;;;;21.42;10.85;;;18.50;86.20;;;;;;5042514;28;20021;-84
2022/05/02 10:39:03;;;;;;;15.02;10.18;;;17.50;67.70;;;;;;5047724;28;20031;-85
2022/05/02 10:41:58;;;;;;;13.48;9.20;;;17.50;73.70;;;;;;5046772;28;20357;-85
2022/05/02 10:44:33;;;;;;;17.90;9.57;;;17.80;76.10;;;;;;5034794;28;20032;-86
2022/05/02 10:47:03;;;;;;;17.58;10.88;;;17.80;83.30;;;;;;5045502;28;20037;-86
2022/05/02 10:49:35;;;;;;;15.85;10.25;;;18.20;78.90;;;;;;5047817;28;20037;-86
2022/05/02 10:52:32;;;;;;;14.90;9.93;;;18.50;81.10;;;;;;5044302;28;20079;-86
2022/05/02 10:55:05;;;;;;;15.52;8.80;;;18.20;66.10;;;;;;5046115;28;20024;-85
2022/05/02 10:57:52;;;;;;;14.40;9.55;;;18.10;66.80;;;;;;5045935;28;20025;-86
2022/05/02 11:00:19;;;;;;;12.53;9.30;;;18.10;71.00;;;;;;5048786;28;20049;-86
2022/05/02 11:03:17;;;;;;;15.93;8.40;;;18.40;70.60;;;;;;5048890;28;20271;-86
2022/05/02 11:05:49;;;;;;;15.32;8.52;;;18.80;75.00;;;;;;5049081;28;20032;-86
2022/05/02 11:08:20;;;;;;;17.85;9.07;;;18.60;60.90;;;;;;5048707;28;20029;-85
2022/05/02 11:11:00;;;;;;;14.35;8.38;;;18.70;66.40;;;;;;5048433;28;20052;-86
2022/05/02 11:13:50;;;;;;;13.15;8.35;;;18.50;65.60;;;;;;5048947;28;20027;-85
2022/05/02 11:16:40;;;;;;;15.32;8.60;;;18.60;71.80;;;;;;5048779;28;20036;-86
2022/05/02 11:22:21;;;;;;;11.18;6.80;;;18.80;63.40;;;;;;5048724;28;20600;-88
2022/05/02 11:24:52;;;;;;;10.85;6.72;;;18.60;67.60;;;;;;5046153;28;20401;-87
2022/05/02 11:27:34;;;;;;;14.10;7.50;;;18.10;62.80;;;;;;5047901;28;20485;-87
2022/05/02 11:30:11;;;;;;;17.55;8.57;;;18.40;69.80;;;;;;5047968;28;20037;-86
2022/05/02 11:32:48;;;;;;;15.23;8.30;;;18.80;69.00;;;;;;5049501;28;20017;-86
2022/05/02 11:35:24;;;;;;;11.57;7.90;;;19.00;66.20;;;;;;5048620;28;20025;-87
2022/05/02 11:38:26;;;;;;;11.35;7.60;;;18.70;66.50;;;;;;5048494;28;20259;-86
2022/05/02 11:40:59;;;;;;;12.50;7.18;;;19.00;66.40;;;;;;5063608;28;20029;-88
2022/05/02 11:43:30;;;;;;;13.02;7.50;;;19.20;61.80;;;;;;5064398;28;20078;-86
2022/05/02 11:46:22;;;;;;;12.27;7.97;;;18.90;59.40;;;;;;5063921;28;20029;-86
2022/05/02 11:49:16;;;;;;;15.38;7.70;;;18.50;66.80;;;;;;5048188;28;20400;-86
2022/05/02 11:51:43;;;;;;;18.30;8.20;;;18.80;63.90;;;;;;5063452;28;20467;-86
2022/05/02 11:54:29;;;;;;;11.63;7.20;;;18.80;65.90;;;;;;5046873;28;20051;-87
2022/05/02 11:57:10;;;;;;;16.90;8.18;;;18.60;66.90;;;;;;5048226;28;20025;-86
2022/05/02 11:59:54;;;;;;;15.55;7.78;;;18.00;65.30;;;;;;5047284;28;20052;-88
2022/05/02 12:02:38;;;;;;;12.40;7.90;;;18.20;70.30;;;;;;5048246;28;20025;-87
2022/05/02 12:05:19;;;;;;;19.55;8.15;;;18.20;72.00;;;;;;5049167;28;20029;-87
2022/05/02 12:07:56;;;;;;;12.52;7.65;;;18.30;77.10;;;;;;5048664;28;20032;-86
2022/05/02 12:10:31;;;;;;;14.23;8.63;;;18.10;69.60;;;;;;5050621;28;20504;-85
2022/05/02 12:12:57;;;;;;;12.90;8.40;;;17.50;64.20;;;;;;5051809;28;20024;-86
2022/05/02 12:15:24;;;;;;;17.38;8.60;;;17.60;71.70;;;;;;5051604;28;20032;-85
2022/05/02 12:17:50;;;;;;;13.18;8.40;;;18.00;70.40;;;;;;5048713;28;20049;-86
2022/05/02 12:20:26;;;;;;;13.60;8.30;;;18.30;67.60;;;;;;5048396;28;20487;-86
2022/05/02 12:23:07;;;;;;;13.27;7.97;;;18.10;64.50;;;;;;5049884;28;20032;-86
2022/05/02 12:25:34;;;;;;;24.80;9.30;;;18.10;71.50;;;;;;5049545;28;20024;-85
2022/05/02 12:28:03;;;;;;;12.40;9.27;;;18.10;67.50;;;;;;5050315;28;20024;-85
2022/05/02 12:30:30;;;;;;;14.35;8.70;;;18.00;66.80;;;;;;5050081;28;20044;-87
2022/05/02 12:33:02;;;;;;;13.75;8.40;;;17.90;70.50;;;;;;5050394;28;20025;-87
2022/05/02 12:35:40;;;;;;;14.75;8.88;;;18.00;71.50;;;;;;5051376;28;20047;-85
2022/05/02 12:38:12;;;;;;;12.93;8.25;;;17.80;69.10;;;;;;5049343;28;20060;-86
2022/05/02 12:40:40;;;;;;;12.32;7.63;;;17.90;71.20;;;;;;5063208;28;20431;-85
2022/05/02 12:43:15;;;;;;;14.02;8.25;;;17.60;69.00;;;;;;5050888;28;20029;-86
2022/05/02 12:45:46;;;;;;;12.85;8.18;;;17.80;71.80;;;;;;5062069;28;20071;-84
2022/05/02 12:48:22;;;;;;;15.38;7.95;;;17.70;71.10;;;;;;5046108;28;20021;-85
2022/05/02 12:50:51;;;;;;;13.77;8.90;;;18.10;71.20;;;;;;5049615;28;20029;-84
2022/05/02 12:54:09;;;;;;;18.00;8.73;;;18.20;67.10;;;;;;5049871;28;20025;-87
2022/05/02 12:56:06;;;;;;;25.40;9.13;;;18.50;68.90;;;;;;5050730;28;20025;-85
2022/05/02 13:01:21;;;;;;;14.68;8.75;;;18.10;68.20;;;;;;5050659;28;20551;-86
2022/05/02 13:03:57;;;;;;;19.95;8.93;;;18.20;70.50;;;;;;5049674;28;20021;-88
2022/05/02 13:06:26;;;;;;;12.27;8.75;;;18.30;68.70;;;;;;5050557;28;20099;-86
2022/05/02 13:09:06;;;;;;;18.55;8.95;;;18.20;68.20;;;;;;5049913;28;20160;-86
2022/05/02 13:11:36;;;;;;;16.95;9.23;;;18.40;69.00;;;;;;5049195;28;20393;-86
2022/05/02 13:14:05;;;;;;;15.07;8.70;;;18.10;65.70;;;;;;5050850;28;20017;-90
2022/05/02 13:16:44;;;;;;;13.48;8.65;;;18.40;69.90;;;;;;5049983;28;20114;-86
2022/05/02 13:19:11;;;;;;;14.23;8.90;;;18.80;66.90;;;;;;5047161;28;20104;-87
2022/05/02 13:21:38;;;;;;;14.00;8.37;;;18.90;64.20;;;;;;5050434;28;20405;-85
2022/05/02 13:24:10;;;;;;;19.13;9.85;;;18.80;67.80;;;;;;5049516;28;20382;-87
2022/05/02 13:26:54;;;;;;;17.58;9.70;;;18.70;62.50;;;;;;5065539;28;20044;-87
2022/05/02 13:29:22;;;;;;;17.13;8.77;;;18.80;67.40;;;;;;5049534;28;20056;-85
2022/05/02 13:32:02;;;;;;;13.05;8.55;;;19.10;64.40;;;;;;5049514;28;20053;-87
2022/05/02 13:34:40;;;;;;;13.90;9.35;;;18.90;66.50;;;;;;5048446;28;20036;-85
2022/05/02 13:37:10;;;;;;;;;;;18.60;63.80;;;;;;5050640;28;20036;-87
2022/05/02 13:40:08;;;;;;;16.38;8.57;;;18.50;63.50;;;;;;5062916;28;19909;-85
2022/05/02 13:43:06;;;;;;;10.75;8.00;;;18.60;63.50;;;;;;5046613;28;20025;-86
2022/05/02 13:45:42;;;;;;;15.35;8.68;;;18.70;68.80;;;;;;5048077;28;20100;-86
2022/05/02 13:48:07;;;;;;;15.50;8.35;;;18.50;66.10;;;;;;5059127;28;20417;-89
2022/05/02 13:50:45;;;;;;;10.02;7.53;;;18.30;63.50;;;;;;5047089;28;20032;-88
2022/05/02 13:53:18;;;;;;;12.35;7.90;;;18.30;63.40;;;;;;5037045;28;20127;-87
2022/05/02 13:56:05;;;;;;;12.82;8.30;;;18.40;61.50;;;;;;5029986;28;20021;-87
2022/05/02 13:59:09;;;;;;;13.13;8.10;;;18.60;62.20;;;;;;5030186;28;20112;-86
2022/05/02 14:01:48;;;;;;;12.60;8.57;;;18.70;62.40;;;;;;5030825;28;20037;-87
2022/05/02 14:04:26;;;;;;;17.60;9.27;;;18.70;62.10;;;;;;5051279;28;20542;-91
2022/05/02 14:09:47;;;;;;;17.08;9.02;;;18.70;68.30;;;;;;5069566;28;20090;-86
2022/05/02 14:12:18;;;;;;;12.93;9.40;;;18.40;64.40;;;;;;5071223;28;20025;-86
2022/05/02 14:14:56;;;;;;;16.85;8.35;;;18.20;64.10;;;;;;5068442;28;20435;-86
2022/05/02 14:20:28;;;;;;;15.25;8.10;;;18.60;66.60;;;;;;5069375;28;20032;-86
2022/05/02 14:23:01;;;;;;;18.52;9.68;;;18.70;68.10;;;;;;5069482;28;20024;-87